createdAt,value
2024-04-13T00:00:51.804Z,8.10
2024-04-13T00:03:42.766Z,9.50
2024-04-13T00:06:11.265Z,9.90
2024-04-13T00:08:42.023Z,9.60
2024-04-13T00:11:10.186Z,8.80
2024-04-13T00:13:39.208Z,10.40
2024-04-13T00:16:07.570Z,11.10
2024-04-13T00:18:35.544Z,10.90
2024-04-13T00:21:04.657Z,11.40
2024-04-13T00:23:33.361Z,11.90
2024-04-13T00:26:02.215Z,10.10
2024-04-13T00:28:30.287Z,9.60
2024-04-13T00:30:58.623Z,9.90
2024-04-13T00:33:26.874Z,9.40
2024-04-13T00:35:59.975Z,9.30
2024-04-13T00:38:28.546Z,9.80
2024-04-13T00:40:56.577Z,8.20
2024-04-13T00:43:24.546Z,11.70
2024-04-13T00:45:56.508Z,8.90
2024-04-13T00:48:31.511Z,8.70
2024-04-13T00:51:05.773Z,8.70
2024-04-13T00:53:37.757Z,7.60
2024-04-13T00:56:07.802Z,8.70
2024-04-13T00:58:37.403Z,7.50
2024-04-13T01:01:07.401Z,8.60
2024-04-13T01:03:36.762Z,8.20
2024-04-13T01:06:07.628Z,9.20
2024-04-13T01:08:35.863Z,11.10
2024-04-13T01:11:04.817Z,8.80
2024-04-13T01:13:33.578Z,9.00
2024-04-13T01:16:01.633Z,8.90
2024-04-13T01:18:31.648Z,9.80
2024-04-13T01:21:00.187Z,8.60
2024-04-13T01:23:31.163Z,8.70
2024-04-13T01:26:00.489Z,9.30
2024-04-13T01:28:33.122Z,9.60
2024-04-13T01:31:02.648Z,7.70
2024-04-13T01:33:30.894Z,9.10
2024-04-13T01:36:02.488Z,10.00
2024-04-13T01:38:30.566Z,9.00
2024-04-13T01:40:58.824Z,8.10
2024-04-13T01:43:26.750Z,9.80
2024-04-13T01:45:55.227Z,7.90
2024-04-13T01:48:23.445Z,7.50
2024-04-13T01:50:51.654Z,9.20
2024-04-13T01:53:19.798Z,8.30
2024-04-13T01:55:47.873Z,8.50
2024-04-13T01:58:15.930Z,13.40
2024-04-13T02:00:44.629Z,10.40
2024-04-13T02:03:15.868Z,9.50
2024-04-13T02:05:44.552Z,7.50
2024-04-13T02:08:12.427Z,9.40
2024-04-13T02:10:40.427Z,9.10
2024-04-13T02:13:09.959Z,8.70
2024-04-13T02:15:38.089Z,8.80
2024-04-13T02:18:06.381Z,9.50
2024-04-13T02:20:35.654Z,8.00
2024-04-13T02:23:05.934Z,10.10
2024-04-13T02:25:34.252Z,10.40
2024-04-13T02:28:02.311Z,10.70
2024-04-13T02:30:31.382Z,8.20
2024-04-13T02:32:59.684Z,9.60
2024-04-13T02:35:27.682Z,9.50
2024-04-13T02:37:57.064Z,9.60
2024-04-13T02:40:25.429Z,9.90
2024-04-13T02:42:54.058Z,9.20
2024-04-13T02:45:22.285Z,8.80
2024-04-13T02:47:50.520Z,11.00
2024-04-13T02:50:19.568Z,9.50
2024-04-13T02:52:48.245Z,8.80
2024-04-13T02:55:16.558Z,9.30
2024-04-13T02:57:44.998Z,9.70
2024-04-13T03:00:13.752Z,7.80
2024-04-13T03:02:41.932Z,9.80
2024-04-13T03:05:09.986Z,10.40
2024-04-13T03:07:38.004Z,9.00
2024-04-13T03:10:09.788Z,11.50
2024-04-13T03:12:37.811Z,10.90
2024-04-13T03:15:07.183Z,10.20
2024-04-13T03:17:35.347Z,10.00
2024-04-13T03:20:06.961Z,7.40
2024-04-13T03:22:34.961Z,9.00
2024-04-13T03:25:02.854Z,9.70
2024-04-13T03:27:30.835Z,9.10
2024-04-13T03:29:58.782Z,9.20
2024-04-13T03:32:26.725Z,9.70
2024-04-13T03:34:54.979Z,9.60
2024-04-13T03:37:23.049Z,11.80
2024-04-13T03:39:51.059Z,9.60
2024-04-13T03:42:21.705Z,19.90
2024-04-13T03:44:51.873Z,12.00
2024-04-13T03:47:20.413Z,9.70
2024-04-13T03:49:48.747Z,9.40
2024-04-13T03:52:16.696Z,9.70
2024-04-13T03:54:44.537Z,9.50
2024-04-13T03:57:12.744Z,9.00
2024-04-13T03:59:40.725Z,9.50
2024-04-13T04:02:08.777Z,9.60
2024-04-13T04:04:37.107Z,12.70
2024-04-13T04:07:05.644Z,12.40
2024-04-13T04:09:34.621Z,10.20
2024-04-13T04:12:03.636Z,11.20
2024-04-13T04:14:31.905Z,11.10
2024-04-13T04:17:00.819Z,11.40
2024-04-13T04:19:29.394Z,10.50
2024-04-13T04:21:57.434Z,11.40
2024-04-13T04:24:25.581Z,9.70
2024-04-13T04:26:53.688Z,9.40
2024-04-13T04:29:21.549Z,11.90
2024-04-13T04:31:49.425Z,10.70
2024-04-13T04:34:17.654Z,9.90
2024-04-13T04:36:45.538Z,11.40
2024-04-13T04:39:13.582Z,13.00
2024-04-13T04:41:42.015Z,12.20
2024-04-13T04:44:10.078Z,12.50
2024-04-13T04:46:38.160Z,9.20
2024-04-13T04:49:07.083Z,10.30
2024-04-13T04:51:35.164Z,10.70
2024-04-13T04:54:03.395Z,10.70
2024-04-13T04:56:32.799Z,13.30
2024-04-13T04:59:01.209Z,10.50
2024-04-13T05:01:29.110Z,9.90
2024-04-13T05:03:57.835Z,9.90
2024-04-13T05:06:25.895Z,11.20
2024-04-13T05:08:53.934Z,10.90
2024-04-13T05:11:22.055Z,12.30
2024-04-13T05:13:50.114Z,12.20
2024-04-13T05:16:18.053Z,12.60
2024-04-13T05:18:46.350Z,9.90
2024-04-13T05:21:14.636Z,12.90
2024-04-13T05:23:42.705Z,9.90
2024-04-13T05:26:11.288Z,11.10
2024-04-13T05:28:39.304Z,11.20
2024-04-13T05:31:10.635Z,9.50
2024-04-13T05:33:40.144Z,12.00
2024-04-13T05:36:08.647Z,11.70
2024-04-13T05:38:36.871Z,12.80
2024-04-13T05:41:05.630Z,9.60
2024-04-13T05:43:33.534Z,10.70
2024-04-13T05:46:04.870Z,11.80
2024-04-13T05:48:33.678Z,12.00
2024-04-13T05:51:01.712Z,10.60
2024-04-13T05:53:30.005Z,12.70
2024-04-13T05:55:58.694Z,11.70
2024-04-13T05:58:27.485Z,10.90
2024-04-13T06:00:55.933Z,11.10
2024-04-13T06:03:24.721Z,10.70
2024-04-13T06:05:52.878Z,9.60
2024-04-13T06:08:21.309Z,9.90
2024-04-13T06:10:49.359Z,9.90
2024-04-13T06:13:18.686Z,10.90
2024-04-13T06:15:46.625Z,8.30
2024-04-13T06:18:14.644Z,7.80
2024-04-13T06:20:42.779Z,9.80
2024-04-13T06:23:10.781Z,9.60
2024-04-13T06:25:38.830Z,7.60
2024-04-13T06:28:07.709Z,8.90
2024-04-13T06:30:35.785Z,10.00
2024-04-13T06:33:03.886Z,8.60
2024-04-13T06:35:32.064Z,9.30
2024-04-13T06:38:04.500Z,10.70
2024-04-13T06:40:32.587Z,9.70
2024-04-13T06:43:02.307Z,10.40
2024-04-13T06:45:30.586Z,9.50
2024-04-13T06:47:58.555Z,8.70
2024-04-13T06:50:26.701Z,7.70
2024-04-13T06:52:54.810Z,10.30
2024-04-13T06:55:22.914Z,8.20
2024-04-13T06:57:51.675Z,7.90
2024-04-13T07:00:20.505Z,8.90
2024-04-13T07:02:49.107Z,7.90
2024-04-13T07:05:17.583Z,12.60
2024-04-13T07:07:45.568Z,6.70
2024-04-13T07:10:13.407Z,9.80
2024-04-13T07:12:41.821Z,7.90
2024-04-13T07:15:10.836Z,9.00
2024-04-13T07:17:39.182Z,6.60
2024-04-13T07:20:08.503Z,7.40
2024-04-13T07:22:36.647Z,8.90
2024-04-13T07:25:05.543Z,9.10
2024-04-13T07:27:33.649Z,6.30
2024-04-13T07:30:01.986Z,8.30
2024-04-13T07:32:30.005Z,6.20
2024-04-13T07:34:58.229Z,6.80
2024-04-13T07:37:26.135Z,7.30
2024-04-13T07:39:54.162Z,6.40
2024-04-13T07:42:22.276Z,6.30
2024-04-13T07:44:50.428Z,6.50
2024-04-13T07:47:19.025Z,6.50
2024-04-13T07:49:47.479Z,6.40
2024-04-13T07:52:15.547Z,8.00
2024-04-13T07:54:43.722Z,8.10
2024-04-13T07:57:12.144Z,8.40
2024-04-13T07:59:40.287Z,7.50
2024-04-13T08:02:08.154Z,8.90
2024-04-13T08:04:39.279Z,7.00
2024-04-13T08:07:08.912Z,6.40
2024-04-13T08:09:42.515Z,9.90
2024-04-13T08:12:10.865Z,7.30
2024-04-13T08:14:39.756Z,7.30
2024-04-13T08:17:08.130Z,8.70
2024-04-13T08:19:36.209Z,8.20
2024-04-13T08:22:04.706Z,8.30
2024-04-13T08:24:33.441Z,8.20
2024-04-13T08:27:01.503Z,9.30
2024-04-13T08:29:29.456Z,8.00
2024-04-13T08:31:57.586Z,9.80
2024-04-13T08:34:28.130Z,10.30
2024-04-13T08:36:56.188Z,9.00
2024-04-13T08:39:24.478Z,7.20
2024-04-13T08:42:05.197Z,6.90
2024-04-13T08:44:34.019Z,8.20
2024-04-13T08:47:03.362Z,7.50
2024-04-13T08:49:32.551Z,7.50
2024-04-13T08:52:02.641Z,8.30
2024-04-13T08:54:31.422Z,8.40
2024-04-13T08:57:02.593Z,7.70
2024-04-13T08:59:31.991Z,7.30
2024-04-13T09:02:03.379Z,7.90
2024-04-13T09:04:33.521Z,7.70
2024-04-13T09:07:02.480Z,9.10
2024-04-13T09:09:34.116Z,9.80
2024-04-13T09:12:02.366Z,8.80
2024-04-13T09:14:30.342Z,9.30
2024-04-13T09:17:00.586Z,9.60
2024-04-13T09:19:28.887Z,10.90
2024-04-13T09:21:57.513Z,7.40
2024-04-13T09:24:25.812Z,8.70
2024-04-13T09:26:54.883Z,8.10
2024-04-13T09:29:29.268Z,10.00
2024-04-13T09:31:59.465Z,7.30
2024-04-13T09:34:27.515Z,19.70
2024-04-13T09:37:11.650Z,10.50
2024-04-13T09:39:43.068Z,9.30
2024-04-13T09:42:12.140Z,10.00
2024-04-13T09:44:41.876Z,9.20
2024-04-13T09:47:09.976Z,8.20
2024-04-13T09:49:39.511Z,7.30
2024-04-13T09:52:08.892Z,8.30
2024-04-13T09:54:37.573Z,8.20
2024-04-13T09:57:06.020Z,8.20
2024-04-13T09:59:34.834Z,9.00
2024-04-13T10:02:03.288Z,8.50
2024-04-13T10:04:31.536Z,7.80
2024-04-13T10:07:02.346Z,8.00
2024-04-13T10:09:33.643Z,8.70
2024-04-13T10:12:04.581Z,7.50
2024-04-13T10:14:35.832Z,9.10
2024-04-13T10:17:05.785Z,8.80
2024-04-13T10:19:34.553Z,8.60
2024-04-13T10:22:12.407Z,12.20
2024-04-13T10:24:50.956Z,9.90
2024-04-13T10:27:24.110Z,9.50
2024-04-13T10:29:52.656Z,9.20
2024-04-13T10:32:23.504Z,10.20
2024-04-13T10:37:32.064Z,10.30
2024-04-13T10:40:02.638Z,8.20
2024-04-13T10:42:41.557Z,10.30
2024-04-13T10:45:20.654Z,8.80
2024-04-13T10:47:49.127Z,8.10
2024-04-13T10:50:18.930Z,10.20
2024-04-13T10:52:47.679Z,7.90
2024-04-13T10:55:18.822Z,10.10
2024-04-13T10:57:50.280Z,8.20
2024-04-13T11:00:19.484Z,10.40
2024-04-13T11:02:49.673Z,8.90
2024-04-13T11:05:21.671Z,10.30
2024-04-13T11:07:52.983Z,10.90
2024-04-13T11:10:21.364Z,9.30
2024-04-13T11:12:50.804Z,8.60
2024-04-13T11:15:19.152Z,8.90
2024-04-13T11:17:49.724Z,9.80
2024-04-13T11:20:17.869Z,8.80
2024-04-13T11:22:46.502Z,7.50
2024-04-13T11:25:18.026Z,10.30
2024-04-13T11:27:48.120Z,8.50
2024-04-13T11:30:18.402Z,8.90
2024-04-13T11:32:47.841Z,9.00
2024-04-13T11:35:19.552Z,10.80
2024-04-13T11:38:00.949Z,9.50
2024-04-13T11:40:33.179Z,9.10
2024-04-13T11:43:01.321Z,9.90
2024-04-13T11:45:30.666Z,7.60
2024-04-13T11:47:58.795Z,10.50
2024-04-13T11:50:26.788Z,12.00
2024-04-13T11:52:56.280Z,8.00
2024-04-13T11:55:26.012Z,9.00
2024-04-13T11:57:54.422Z,8.70
2024-04-13T12:00:22.566Z,8.30
2024-04-13T12:02:51.191Z,7.80
2024-04-13T12:05:22.364Z,8.40
2024-04-13T12:07:50.356Z,8.70
2024-04-13T12:10:18.568Z,9.00
2024-04-13T12:12:46.740Z,10.10
2024-04-13T12:15:14.919Z,9.40
2024-04-13T12:17:43.230Z,8.20
2024-04-13T12:20:11.471Z,10.60
2024-04-13T12:22:39.405Z,8.30
2024-04-13T12:25:07.602Z,10.90
2024-04-13T12:27:35.670Z,9.80
2024-04-13T12:30:04.957Z,10.10
2024-04-13T12:32:33.057Z,10.70
2024-04-13T12:35:08.651Z,15.50
2024-04-13T12:37:36.651Z,11.00
2024-04-13T12:40:05.288Z,10.10
2024-04-13T12:42:33.538Z,11.10
2024-04-13T12:45:01.676Z,8.80
2024-04-13T12:47:30.073Z,9.70
2024-04-13T12:49:58.031Z,11.10
2024-04-13T12:52:26.058Z,11.60
2024-04-13T12:54:54.103Z,9.60
2024-04-13T12:57:22.864Z,10.10
2024-04-13T12:59:50.905Z,11.00
2024-04-13T13:02:18.759Z,8.10
2024-04-13T13:04:47.440Z,9.30
2024-04-13T13:07:15.424Z,8.60
2024-04-13T13:09:43.343Z,9.70
2024-04-13T13:12:11.291Z,8.10
2024-04-13T13:14:39.422Z,7.60
2024-04-13T13:17:07.331Z,8.90
2024-04-13T13:19:35.683Z,8.50
2024-04-13T13:22:03.961Z,9.30
2024-04-13T13:24:32.102Z,8.80
2024-04-13T13:27:01.317Z,11.40
2024-04-13T13:29:29.305Z,7.80
2024-04-13T13:31:57.527Z,9.60
2024-04-13T13:34:25.730Z,9.50
2024-04-13T13:36:54.020Z,8.70
2024-04-13T13:39:22.048Z,10.00
2024-04-13T13:41:50.254Z,10.30
2024-04-13T13:44:18.318Z,8.20
2024-04-13T13:46:48.583Z,8.90
2024-04-13T13:49:17.837Z,7.20
2024-04-13T13:51:46.117Z,9.20
2024-04-13T13:54:14.044Z,8.40
2024-04-13T13:56:41.949Z,8.00
2024-04-13T13:59:11.217Z,10.60
2024-04-13T14:01:39.328Z,13.30
2024-04-13T14:04:08.530Z,7.90
2024-04-13T14:06:36.739Z,8.90
2024-04-13T14:09:06.421Z,11.90
2024-04-13T14:11:34.520Z,9.50
2024-04-13T14:14:02.546Z,9.30
2024-04-13T14:16:30.559Z,10.80
2024-04-13T14:18:58.708Z,9.40
2024-04-13T14:21:31.320Z,11.40
2024-04-13T14:23:59.844Z,9.40
2024-04-13T14:26:27.917Z,9.80
2024-04-13T14:28:55.779Z,9.20
2024-04-13T14:31:23.699Z,8.70
2024-04-13T14:33:51.741Z,10.10
2024-04-13T14:36:19.970Z,9.40
2024-04-13T14:38:48.064Z,8.70
2024-04-13T14:41:16.010Z,8.30
2024-04-13T14:43:45.237Z,9.20
2024-04-13T14:46:13.311Z,7.30
2024-04-13T14:48:41.622Z,7.20
2024-04-13T14:51:10.030Z,7.90
2024-04-13T14:53:38.463Z,9.10
2024-04-13T14:56:07.239Z,8.20
2024-04-13T14:58:35.307Z,8.20
2024-04-13T15:01:07.609Z,8.70
2024-04-13T15:03:37.215Z,8.90
2024-04-13T15:06:05.946Z,9.10
2024-04-13T15:08:33.846Z,8.20
2024-04-13T15:11:01.961Z,8.50
2024-04-13T15:13:30.392Z,10.00
2024-04-13T15:15:58.402Z,9.90
2024-04-13T15:18:26.478Z,9.30
2024-04-13T15:20:54.701Z,8.90
2024-04-13T15:23:22.581Z,10.30
2024-04-13T15:25:50.560Z,10.20
2024-04-13T15:28:18.535Z,12.40
2024-04-13T15:30:49.326Z,11.30
2024-04-13T15:33:17.716Z,13.60
2024-04-13T15:35:46.178Z,10.10
2024-04-13T15:38:14.162Z,11.10
2024-04-13T15:40:42.067Z,10.90
2024-04-13T15:43:10.114Z,10.60
2024-04-13T15:45:38.044Z,9.80
2024-04-13T15:48:06.796Z,15.30
2024-04-13T15:50:38.214Z,10.60
2024-04-13T15:53:06.374Z,9.00
2024-04-13T15:55:40.929Z,9.30
2024-04-13T15:58:10.616Z,10.10
2024-04-13T16:00:39.086Z,11.00
2024-04-13T16:03:07.403Z,8.40
2024-04-13T16:05:35.554Z,9.70
2024-04-13T16:08:04.130Z,10.30
2024-04-13T16:10:32.114Z,11.00
2024-04-13T16:13:00.349Z,11.30
2024-04-13T16:15:28.605Z,9.90
2024-04-13T16:17:56.734Z,12.50
2024-04-13T16:20:24.898Z,12.50
2024-04-13T16:22:52.961Z,12.90
2024-04-13T16:25:20.887Z,12.80
2024-04-13T16:27:49.008Z,11.80
2024-04-13T16:30:17.442Z,11.50
2024-04-13T16:32:45.756Z,13.30
2024-04-13T16:35:14.039Z,15.10
2024-04-13T16:37:41.920Z,18.90
2024-04-13T16:40:10.292Z,16.80
2024-04-13T16:42:38.396Z,14.60
2024-04-13T16:45:06.877Z,14.60
2024-04-13T16:47:34.890Z,21.50
2024-04-13T16:50:03.088Z,14.30
2024-04-13T16:52:31.071Z,16.20
2024-04-13T16:54:59.032Z,12.30
2024-04-13T16:57:27.219Z,11.90
2024-04-13T16:59:55.282Z,13.40
2024-04-13T17:02:23.315Z,14.30
2024-04-13T17:04:51.591Z,18.60
2024-04-13T17:07:19.598Z,12.40
2024-04-13T17:09:47.539Z,15.60
2024-04-13T17:12:15.725Z,17.70
2024-04-13T17:14:43.795Z,15.20
2024-04-13T17:17:11.811Z,16.40
2024-04-13T17:19:39.853Z,14.30
2024-04-13T17:22:08.835Z,14.70
2024-04-13T17:24:37.041Z,20.80
2024-04-13T17:27:06.708Z,20.80
2024-04-13T17:29:34.955Z,18.40
2024-04-13T17:32:02.972Z,15.70
2024-04-13T17:34:31.230Z,15.70
2024-04-13T17:36:59.248Z,19.80
2024-04-13T17:39:27.164Z,20.50
2024-04-13T17:41:55.162Z,19.30
2024-04-13T17:44:23.079Z,17.00
2024-04-13T17:46:51.080Z,16.10
2024-04-13T17:49:19.011Z,21.00
2024-04-13T17:51:48.634Z,16.60
2024-04-13T17:54:17.216Z,18.20
2024-04-13T17:56:45.179Z,19.00
2024-04-13T17:59:13.023Z,19.80
2024-04-13T18:01:41.267Z,20.20
2024-04-13T18:04:11.152Z,17.70
2024-04-13T18:06:39.346Z,17.20
2024-04-13T18:09:07.478Z,16.80
2024-04-13T18:11:35.429Z,17.80
2024-04-13T18:14:03.543Z,17.60
2024-04-13T18:16:33.655Z,18.50
2024-04-13T18:19:01.931Z,15.60
2024-04-13T18:21:30.447Z,12.80
2024-04-13T18:23:58.590Z,15.70
2024-04-13T18:26:26.655Z,19.90
2024-04-13T18:28:54.854Z,17.20
2024-04-13T18:31:22.887Z,17.80
2024-04-13T18:33:52.285Z,17.90
2024-04-13T18:36:22.028Z,17.80
2024-04-13T18:38:53.505Z,19.50
2024-04-13T18:41:22.138Z,18.30
2024-04-13T18:43:50.249Z,21.50
2024-04-13T18:46:18.165Z,22.00
2024-04-13T18:48:46.411Z,24.40
2024-04-13T18:51:14.642Z,24.70
2024-04-13T18:53:42.819Z,21.40
2024-04-13T18:56:10.745Z,18.30
2024-04-13T18:58:38.966Z,20.00
2024-04-13T19:01:13.768Z,16.90
2024-04-13T19:03:41.942Z,15.90
2024-04-13T19:06:10.921Z,16.70
2024-04-13T19:08:39.129Z,17.20
2024-04-13T19:11:07.257Z,16.30
2024-04-13T19:13:35.316Z,15.60
2024-04-13T19:16:09.637Z,14.40
2024-04-13T19:18:40.382Z,15.40
2024-04-13T19:21:09.822Z,16.20
2024-04-13T19:23:41.436Z,16.70
2024-04-13T19:26:09.554Z,13.90
2024-04-13T19:28:37.627Z,17.20
2024-04-13T19:31:05.599Z,14.60
2024-04-13T19:33:34.764Z,16.10
2024-04-13T19:36:02.880Z,19.70
2024-04-13T19:38:30.925Z,20.90
2024-04-13T19:40:58.933Z,22.00
2024-04-13T19:43:26.892Z,19.90
2024-04-13T19:45:55.033Z,18.60
2024-04-13T19:48:23.437Z,21.50
2024-04-13T19:50:51.650Z,18.80
2024-04-13T19:53:19.603Z,20.00
2024-04-13T19:55:47.571Z,36.90
2024-04-13T19:58:15.599Z,35.00
2024-04-13T20:00:43.655Z,28.10
2024-04-13T20:03:12.033Z,19.80
2024-04-13T20:05:42.792Z,25.30
2024-04-13T20:08:11.921Z,26.60
2024-04-13T20:10:39.961Z,27.10
2024-04-13T20:13:07.943Z,24.00
2024-04-13T20:16:01.187Z,27.30
2024-04-13T20:18:41.791Z,30.70
2024-04-13T20:21:13.463Z,25.60
2024-04-13T20:23:41.724Z,23.90
2024-04-13T20:26:09.757Z,23.10
2024-04-13T20:28:37.822Z,24.20
2024-04-13T20:31:07.065Z,27.10
2024-04-13T20:33:35.354Z,23.10
2024-04-13T20:36:03.701Z,22.70
2024-04-13T20:38:32.202Z,21.90
2024-04-13T20:41:00.341Z,23.20
2024-04-13T20:43:28.522Z,23.90
2024-04-13T20:45:56.724Z,27.40
2024-04-13T20:48:24.779Z,32.60
2024-04-13T20:50:52.828Z,29.10
2024-04-13T20:53:20.903Z,28.10
2024-04-13T20:55:48.998Z,26.30
2024-04-13T20:58:17.147Z,26.80
2024-04-13T21:00:45.375Z,32.70
2024-04-13T21:03:13.448Z,28.30
2024-04-13T21:05:41.699Z,28.50
2024-04-13T21:08:09.723Z,29.30
2024-04-13T21:10:38.008Z,25.40
2024-04-13T21:13:06.201Z,26.50
2024-04-13T21:15:36.488Z,22.90
2024-04-13T21:18:06.417Z,24.90
2024-04-13T21:20:35.509Z,23.20
2024-04-13T21:23:03.685Z,26.00
2024-04-13T21:25:31.852Z,19.50
2024-04-13T21:27:59.892Z,19.90
2024-04-13T21:30:28.049Z,20.00
2024-04-13T21:32:57.637Z,19.70
2024-04-13T21:35:26.079Z,20.80
2024-04-13T21:37:58.926Z,25.60
2024-04-13T21:40:27.610Z,25.80
2024-04-13T21:42:55.848Z,20.90
2024-04-13T21:45:24.106Z,21.10
2024-04-13T21:47:52.377Z,20.50
2024-04-13T21:50:21.374Z,17.80
2024-04-13T21:52:49.651Z,20.60
2024-04-13T21:55:17.850Z,18.50
2024-04-13T21:57:45.976Z,18.30
2024-04-13T22:00:15.751Z,19.80
2024-04-13T22:02:43.976Z,19.20
2024-04-13T22:05:12.894Z,16.00
2024-04-13T22:07:40.872Z,17.80
2024-04-13T22:10:08.964Z,18.60
2024-04-13T22:12:37.022Z,17.80
2024-04-13T22:15:05.775Z,15.20
2024-04-13T22:17:33.852Z,17.70
2024-04-13T22:20:02.424Z,18.20
2024-04-13T22:22:30.899Z,19.10
2024-04-13T22:24:59.468Z,16.10
2024-04-13T22:27:27.543Z,15.60
2024-04-13T22:29:58.378Z,17.10
2024-04-13T22:32:26.714Z,14.90
2024-04-13T22:34:54.968Z,17.10
2024-04-13T22:37:24.678Z,15.20
2024-04-13T22:39:52.822Z,15.00
2024-04-13T22:42:21.031Z,16.30
2024-04-13T22:44:49.041Z,16.80
2024-04-13T22:47:17.153Z,17.40
2024-04-13T22:49:47.779Z,15.70
2024-04-13T22:52:16.469Z,15.10
2024-04-13T22:54:44.325Z,17.60
2024-04-13T22:57:12.482Z,14.70
2024-04-13T22:59:40.585Z,18.10
2024-04-13T23:02:09.091Z,15.40
2024-04-13T23:04:37.210Z,14.60
2024-04-13T23:07:05.268Z,12.20
2024-04-13T23:09:33.502Z,14.20
2024-04-13T23:12:01.555Z,14.20
2024-04-13T23:14:29.721Z,14.90
2024-04-13T23:16:57.714Z,14.90
2024-04-13T23:19:25.668Z,14.70
2024-04-13T23:21:53.878Z,19.30
2024-04-13T23:24:22.409Z,86.30
2024-04-13T23:26:51.013Z,32.80
2024-04-13T23:29:19.380Z,28.30
2024-04-13T23:31:47.532Z,28.30
2024-04-13T23:34:15.736Z,33.80
2024-04-13T23:36:43.806Z,28.30
2024-04-13T23:39:13.151Z,25.50
2024-04-13T23:41:41.271Z,25.20
2024-04-13T23:44:13.961Z,19.50
2024-04-13T23:46:42.601Z,17.80
2024-04-13T23:49:10.720Z,16.60
2024-04-13T23:51:39.024Z,17.00
2024-04-13T23:54:07.078Z,14.80
2024-04-13T23:56:38.462Z,15.30
2024-04-13T23:59:06.582Z,14.70
